Time;durP1;ratioP1;P1;durP2;ratioP2;P2;SDS_P1;SDS_P2;PMS_P1;PMS_P2;Temp;Humidity;BMP_temperature;BMP_pressure;BME280_temperature;BME280_humidity;BME280_pressure;Samples;Min_cycle;Max_cycle;Signal;HPM_P1;HPM_P2
2022/04/29 00:00:43;;;;;;;11.27;5.87;;;6.30;99.90;;;;;;4987402;28;20473;-81
2022/04/29 00:03:11;;;;;;;13.33;6.30;;;6.30;99.90;;;;;;4985862;28;20103;-80
2022/04/29 00:05:39;;;;;;;11.33;5.37;;;6.30;99.90;;;;;;5014479;28;20043;-81
2022/04/29 00:08:06;;;;;;;13.17;5.70;;;6.30;99.90;;;;;;4985059;28;20120;-81
2022/04/29 00:10:34;;;;;;;13.70;6.13;;;6.30;99.90;;;;;;4994220;28;20030;-81
2022/04/29 00:13:01;;;;;;;9.63;5.33;;;6.30;99.90;;;;;;4996394;28;20050;-81
2022/04/29 00:15:28;;;;;;;13.00;5.93;;;6.30;99.90;;;;;;4979702;28;20065;-81
2022/04/29 00:17:54;;;;;;;14.07;6.03;;;6.30;99.90;;;;;;4999689;28;20041;-81
2022/04/29 00:20:20;;;;;;;12.30;6.10;;;6.30;99.90;;;;;;5020629;28;20045;-82
2022/04/29 00:22:46;;;;;;;14.67;5.97;;;6.20;99.90;;;;;;4981506;28;20117;-82
2022/04/29 00:25:13;;;;;;;15.63;5.63;;;6.20;99.90;;;;;;4977901;28;20042;-82
2022/04/29 00:27:42;;;;;;;16.20;5.80;;;6.20;99.90;;;;;;4980669;28;20033;-81
2022/04/29 00:30:11;;;;;;;14.63;5.87;;;6.20;99.90;;;;;;4995218;28;20049;-81
2022/04/29 00:32:38;;;;;;;10.67;5.53;;;6.20;99.90;;;;;;4989267;28;20091;-81
2022/04/29 00:35:05;;;;;;;11.93;5.20;;;6.20;99.90;;;;;;4994467;28;20053;-81
2022/04/29 00:37:31;;;;;;;10.37;5.73;;;6.20;99.90;;;;;;4978113;28;20033;-81
2022/04/29 00:39:58;;;;;;;12.87;5.37;;;6.20;99.90;;;;;;4994398;28;20041;-79
2022/04/29 00:42:24;;;;;;;11.60;6.17;;;6.10;99.90;;;;;;4983941;28;20042;-80
2022/04/29 00:44:51;;;;;;;10.83;5.73;;;6.20;99.90;;;;;;4997616;28;20042;-81
2022/04/29 00:47:20;;;;;;;11.97;5.37;;;6.20;99.90;;;;;;4981116;28;20038;-81
2022/04/29 00:49:47;;;;;;;15.40;5.53;;;6.10;99.90;;;;;;4993908;28;20596;-81
2022/04/29 00:52:18;;;;;;;13.63;5.30;;;6.10;99.90;;;;;;4980289;28;20161;-81
2022/04/29 00:54:50;;;;;;;14.27;5.40;;;6.00;99.90;;;;;;5005668;28;20525;-82
2022/04/29 00:57:22;;;;;;;15.43;6.05;;;6.00;99.90;;;;;;4985189;28;20038;-81
2022/04/29 00:59:51;;;;;;;;;;;6.00;99.90;;;;;;4999181;28;20042;-81
2022/04/29 01:02:17;;;;;;;10.93;5.00;;;5.90;99.90;;;;;;5007999;28;19916;-81
2022/04/29 01:04:55;;;;;;;9.90;5.50;;;5.80;99.90;;;;;;5009976;28;20045;-81
2022/04/29 01:07:22;;;;;;;13.40;5.53;;;5.90;99.90;;;;;;5022097;28;20076;-81
2022/04/29 01:09:48;;;;;;;11.93;5.57;;;5.80;99.90;;;;;;4995812;28;20474;-81
2022/04/29 01:12:14;;;;;;;10.17;5.83;;;5.70;99.90;;;;;;4976323;28;20034;-81
2022/04/29 01:14:40;;;;;;;9.40;5.40;;;5.70;99.90;;;;;;5001149;28;20301;-81
2022/04/29 01:17:06;;;;;;;12.53;4.93;;;5.70;99.90;;;;;;4983414;28;20037;-81
2022/04/29 01:19:32;;;;;;;13.30;5.43;;;5.60;99.90;;;;;;4989495;28;20119;-81
2022/04/29 01:22:01;;;;;;;9.27;5.37;;;5.50;99.90;;;;;;4998007;28;20072;-81
2022/04/29 01:24:27;;;;;;;12.13;5.43;;;5.50;99.90;;;;;;4977400;28;20048;-82
2022/04/29 01:26:52;;;;;;;11.67;5.53;;;5.50;99.90;;;;;;4990177;28;20042;-81
2022/04/29 01:29:20;;;;;;;9.13;5.57;;;5.50;99.90;;;;;;5010412;28;20084;-81
2022/04/29 01:31:47;;;;;;;9.83;5.10;;;5.40;99.90;;;;;;4977186;28;20037;-81
2022/04/29 01:34:13;;;;;;;10.63;5.07;;;5.40;99.90;;;;;;4985721;28;20087;-81
2022/04/29 01:36:39;;;;;;;10.90;5.07;;;5.40;99.90;;;;;;4983570;28;20117;-81
2022/04/29 01:39:05;;;;;;;10.67;5.00;;;5.50;99.90;;;;;;4997677;28;20046;-81
2022/04/29 01:41:33;;;;;;;12.37;5.40;;;5.40;99.90;;;;;;5007477;28;20033;-81
2022/04/29 01:43:59;;;;;;;11.17;5.30;;;5.50;99.90;;;;;;5023360;28;20386;-81
2022/04/29 01:46:24;;;;;;;9.97;5.67;;;5.40;99.90;;;;;;5000681;28;20033;-81
2022/04/29 01:48:50;;;;;;;11.97;5.00;;;5.40;99.90;;;;;;5024606;28;20045;-81
2022/04/29 01:51:16;;;;;;;10.80;5.50;;;5.40;99.90;;;;;;5017076;28;20463;-81
2022/04/29 01:53:42;;;;;;;10.07;5.10;;;5.40;99.90;;;;;;4992068;28;20060;-81
2022/04/29 01:56:07;;;;;;;8.00;5.10;;;5.30;99.90;;;;;;5016609;28;20144;-81
2022/04/29 01:58:33;;;;;;;10.80;5.00;;;5.30;99.90;;;;;;4999241;28;20052;-81
2022/04/29 02:00:59;;;;;;;11.60;5.13;;;5.20;99.90;;;;;;4982915;28;20081;-81
2022/04/29 02:03:25;;;;;;;15.40;5.93;;;5.20;99.90;;;;;;4993549;28;20041;-81
2022/04/29 02:05:51;;;;;;;9.10;5.30;;;5.20;99.90;;;;;;4994519;28;20108;-81
2022/04/29 02:08:17;;;;;;;9.73;5.70;;;5.20;99.90;;;;;;4981108;28;20125;-81
2022/04/29 02:10:42;;;;;;;10.17;5.90;;;5.20;99.90;;;;;;4999138;28;20030;-81
2022/04/29 02:13:08;;;;;;;10.47;5.57;;;5.10;99.90;;;;;;4981225;28;20585;-81
2022/04/29 02:15:34;;;;;;;10.77;6.17;;;5.00;99.90;;;;;;4982924;28;20048;-80
2022/04/29 02:18:00;;;;;;;12.80;6.47;;;5.00;99.90;;;;;;4980521;28;20053;-81
2022/04/29 02:20:26;;;;;;;11.67;5.80;;;5.00;99.90;;;;;;4990517;28;20485;-81
2022/04/29 02:22:55;;;;;;;14.70;5.53;;;5.00;99.90;;;;;;5000381;28;20045;-81
2022/04/29 02:25:21;;;;;;;7.77;4.37;;;5.00;99.90;;;;;;5005471;28;20049;-81
2022/04/29 02:27:46;;;;;;;15.83;5.60;;;4.80;99.90;;;;;;4993355;28;20038;-81
2022/04/29 02:30:13;;;;;;;8.93;4.90;;;4.90;99.90;;;;;;5019012;28;20037;-81
2022/04/29 02:32:39;;;;;;;7.50;4.60;;;4.80;99.90;;;;;;4983938;28;20072;-81
2022/04/29 02:35:05;;;;;;;11.60;5.30;;;4.80;99.90;;;;;;4982866;28;20050;-81
2022/04/29 02:37:32;;;;;;;10.43;5.00;;;4.80;99.90;;;;;;4998540;28;20505;-81
2022/04/29 02:39:58;;;;;;;12.57;5.60;;;4.80;99.90;;;;;;4997549;28;20414;-81
2022/04/29 02:42:23;;;;;;;11.23;5.10;;;4.80;99.90;;;;;;5013667;28;20127;-80
2022/04/29 02:44:49;;;;;;;8.23;5.10;;;4.80;99.90;;;;;;5002071;28;20147;-81
2022/04/29 02:47:15;;;;;;;12.63;5.30;;;4.70;99.90;;;;;;5016221;28;20064;-81
2022/04/29 02:49:43;;;;;;;12.10;6.13;;;4.70;99.90;;;;;;4999960;28;20044;-81
2022/04/29 02:52:11;;;;;;;11.33;5.57;;;4.60;99.90;;;;;;5024902;28;20421;-81
2022/04/29 02:54:37;;;;;;;6.57;5.10;;;4.60;99.90;;;;;;4987869;28;20038;-81
2022/04/29 02:57:04;;;;;;;9.77;6.07;;;4.70;99.90;;;;;;4949607;28;20049;-81
2022/04/29 02:59:29;;;;;;;10.13;6.00;;;4.60;99.90;;;;;;4996247;28;20042;-81
2022/04/29 03:01:55;;;;;;;12.83;6.27;;;4.60;99.90;;;;;;4995928;28;20410;-81
2022/04/29 03:04:22;;;;;;;10.97;5.87;;;4.70;99.90;;;;;;4996558;28;20096;-81
2022/04/29 03:06:47;;;;;;;11.97;6.70;;;4.70;99.90;;;;;;4999924;28;20045;-81
2022/04/29 03:09:13;;;;;;;11.27;6.13;;;4.70;99.90;;;;;;5032461;28;20052;-81
2022/04/29 03:11:40;;;;;;;14.53;5.67;;;4.80;99.90;;;;;;4982388;28;20037;-81
2022/04/29 03:14:06;;;;;;;9.50;5.67;;;4.80;99.90;;;;;;5004300;28;20064;-80
2022/04/29 03:16:32;;;;;;;9.33;5.70;;;4.80;99.90;;;;;;4987046;28;20034;-81
2022/04/29 03:18:58;;;;;;;13.57;6.10;;;4.90;99.90;;;;;;4995148;28;20049;-80
2022/04/29 03:21:26;;;;;;;11.27;5.53;;;4.80;99.90;;;;;;5000547;28;20034;-79
2022/04/29 03:23:52;;;;;;;8.50;5.30;;;4.80;99.90;;;;;;5003604;28;20049;-81
2022/04/29 03:26:18;;;;;;;13.10;5.77;;;4.70;99.90;;;;;;5013511;28;20049;-81
2022/04/29 03:28:43;;;;;;;11.63;6.20;;;4.70;99.90;;;;;;4992186;28;20034;-81
2022/04/29 03:31:09;;;;;;;12.87;6.93;;;4.60;99.90;;;;;;5031737;28;20114;-81
2022/04/29 03:33:35;;;;;;;15.77;6.37;;;4.60;99.90;;;;;;4998930;28;20041;-81
2022/04/29 03:36:01;;;;;;;15.17;6.57;;;4.60;99.90;;;;;;4997726;28;20191;-81
2022/04/29 03:38:26;;;;;;;18.37;7.53;;;4.50;99.90;;;;;;4983049;28;20113;-81
2022/04/29 03:40:53;;;;;;;11.47;6.30;;;4.50;99.90;;;;;;4983429;28;20041;-81
2022/04/29 03:43:19;;;;;;;15.23;6.80;;;4.50;99.90;;;;;;4979410;28;20053;-80
2022/04/29 03:45:46;;;;;;;11.97;5.97;;;4.50;99.90;;;;;;4994693;28;20052;-81
2022/04/29 03:48:13;;;;;;;10.57;5.60;;;4.50;99.90;;;;;;4995140;28;20049;-81
2022/04/29 03:50:39;;;;;;;10.10;6.13;;;4.50;99.90;;;;;;4994810;28;20550;-81
2022/04/29 03:53:06;;;;;;;10.93;6.03;;;4.50;99.90;;;;;;4979789;28;20048;-81
2022/04/29 03:55:34;;;;;;;14.20;6.70;;;4.50;99.90;;;;;;5004187;28;20038;-81
2022/04/29 03:58:04;;;;;;;11.50;6.33;;;4.50;99.90;;;;;;4980783;28;20048;-81
2022/04/29 04:00:31;;;;;;;11.07;6.23;;;4.40;99.90;;;;;;4978655;28;20074;-81
2022/04/29 04:02:59;;;;;;;11.47;6.10;;;4.40;99.90;;;;;;4978687;28;20072;-81
2022/04/29 04:05:25;;;;;;;14.17;6.70;;;4.40;99.90;;;;;;5005265;28;20060;-81
2022/04/29 04:07:51;;;;;;;11.30;7.33;;;4.30;99.90;;;;;;5026733;28;20037;-81
2022/04/29 04:10:17;;;;;;;17.87;7.37;;;4.40;99.90;;;;;;5027324;28;20378;-81
2022/04/29 04:12:46;;;;;;;12.07;5.87;;;4.40;99.90;;;;;;5014457;28;20041;-81
2022/04/29 04:15:13;;;;;;;12.17;6.37;;;4.40;99.90;;;;;;4998336;28;20053;-81
2022/04/29 04:17:39;;;;;;;12.03;6.77;;;4.40;99.90;;;;;;4994374;28;20046;-81
2022/04/29 04:20:06;;;;;;;11.57;6.03;;;4.50;99.90;;;;;;4991353;28;20049;-81
2022/04/29 04:22:35;;;;;;;12.87;6.90;;;4.50;99.90;;;;;;4978294;28;20054;-80
2022/04/29 04:25:06;;;;;;;20.97;7.80;;;4.50;99.90;;;;;;5007225;28;20401;-81
2022/04/29 04:27:32;;;;;;;15.03;6.63;;;4.50;99.90;;;;;;5023146;28;20033;-81
2022/04/29 04:29:59;;;;;;;16.93;7.80;;;4.50;99.90;;;;;;5027640;28;20076;-81
2022/04/29 04:32:26;;;;;;;12.53;7.43;;;4.60;99.90;;;;;;5013359;28;20036;-81
2022/04/29 04:34:57;;;;;;;18.63;7.70;;;4.60;99.90;;;;;;4998448;28;20035;-81
2022/04/29 04:37:28;;;;;;;15.63;6.93;;;4.60;99.90;;;;;;4998421;28;20041;-81
2022/04/29 04:39:54;;;;;;;14.80;7.57;;;4.70;99.90;;;;;;5011296;28;20580;-81
2022/04/29 04:42:21;;;;;;;11.80;7.17;;;4.70;99.90;;;;;;4994790;28;20050;-81
2022/04/29 04:44:49;;;;;;;19.07;8.50;;;4.70;99.90;;;;;;4978447;28;20041;-81
2022/04/29 04:47:15;;;;;;;14.37;8.50;;;4.80;99.90;;;;;;4978284;28;20034;-81
2022/04/29 04:49:41;;;;;;;14.63;7.57;;;4.80;99.90;;;;;;4981915;28;20041;-81
2022/04/29 04:52:08;;;;;;;20.80;9.33;;;4.90;99.90;;;;;;5012211;28;20050;-81
2022/04/29 04:54:34;;;;;;;24.27;11.47;;;4.90;99.90;;;;;;5008170;28;20041;-81
2022/04/29 04:57:00;;;;;;;18.63;9.20;;;5.00;99.90;;;;;;4997655;28;20045;-81
2022/04/29 04:59:26;;;;;;;22.03;9.50;;;5.10;99.90;;;;;;4990666;28;20171;-81
2022/04/29 05:01:53;;;;;;;12.60;7.67;;;5.20;99.90;;;;;;4983712;28;20117;-80
2022/04/29 05:04:19;;;;;;;15.93;8.27;;;5.30;99.90;;;;;;4940880;28;20044;-81
2022/04/29 05:06:45;;;;;;;15.57;8.53;;;5.40;99.90;;;;;;4933048;28;20043;-81
2022/04/29 05:09:12;;;;;;;22.30;9.37;;;5.50;99.90;;;;;;4944623;28;20557;-81
2022/04/29 05:11:38;;;;;;;16.53;9.30;;;5.60;99.90;;;;;;4953841;28;20039;-81
2022/04/29 05:14:04;;;;;;;18.57;9.63;;;5.70;99.90;;;;;;4970743;28;20181;-81
2022/04/29 05:16:29;;;;;;;17.57;9.60;;;5.80;99.90;;;;;;4970669;28;20134;-81
2022/04/29 05:18:56;;;;;;;15.07;8.80;;;5.80;99.90;;;;;;4938664;28;20051;-81
2022/04/29 05:21:21;;;;;;;20.17;9.50;;;6.00;99.90;;;;;;4938640;28;20471;-81
2022/04/29 05:23:47;;;;;;;14.70;8.73;;;6.00;99.90;;;;;;4954395;28;20109;-81
2022/04/29 05:26:13;;;;;;;20.30;8.70;;;6.10;99.90;;;;;;4938264;28;20101;-82
2022/04/29 05:28:39;;;;;;;19.40;8.80;;;6.20;99.90;;;;;;4954188;28;20055;-82
2022/04/29 05:31:05;;;;;;;15.60;8.37;;;6.40;99.90;;;;;;4950612;28;20857;-81
2022/04/29 05:33:32;;;;;;;14.47;8.00;;;6.40;99.90;;;;;;4952836;28;20086;-81
2022/04/29 05:36:01;;;;;;;18.13;8.57;;;6.60;99.90;;;;;;4929422;28;20047;-80
2022/04/29 05:43:57;;;;;;;19.80;8.30;;;7.00;99.90;;;;;;5000895;28;20045;-81
2022/04/29 05:46:23;;;;;;;14.63;7.93;;;7.20;99.90;;;;;;5001746;28;20576;-79
2022/04/29 05:48:49;;;;;;;15.73;8.17;;;7.20;99.90;;;;;;4992085;28;20037;-79
2022/04/29 05:51:15;;;;;;;13.10;7.73;;;7.30;99.90;;;;;;5013019;28;20058;-79
2022/04/29 05:53:41;;;;;;;15.53;7.67;;;7.30;99.90;;;;;;5029356;28;20495;-80
2022/04/29 05:56:06;;;;;;;14.13;7.60;;;7.40;99.90;;;;;;4996784;28;20045;-81
2022/04/29 05:58:32;;;;;;;13.60;7.47;;;7.40;99.90;;;;;;5007824;28;20081;-81
2022/04/29 06:00:58;;;;;;;15.60;7.40;;;7.50;99.90;;;;;;4993062;28;20060;-77
2022/04/29 06:03:25;;;;;;;10.60;7.13;;;7.50;99.90;;;;;;4991109;28;20100;-78
2022/04/29 06:05:51;;;;;;;14.00;7.67;;;7.60;99.90;;;;;;5000973;28;20049;-78
2022/04/29 06:08:17;;;;;;;13.43;7.43;;;7.60;99.90;;;;;;4992636;28;20397;-80
2022/04/29 06:10:42;;;;;;;11.77;6.63;;;7.60;99.90;;;;;;4964722;28;20054;-81
2022/04/29 06:13:08;;;;;;;15.40;7.60;;;7.70;99.90;;;;;;4960498;28;20037;-81
2022/04/29 06:15:35;;;;;;;15.53;7.70;;;7.70;99.90;;;;;;4997883;28;20038;-80
2022/04/29 06:18:02;;;;;;;15.63;7.40;;;7.70;99.90;;;;;;4999597;28;20100;-79
2022/04/29 06:20:29;;;;;;;11.40;6.97;;;7.70;99.90;;;;;;4983728;28;20069;-79
2022/04/29 06:22:55;;;;;;;17.43;7.67;;;7.80;99.90;;;;;;4998118;28;20038;-81
2022/04/29 06:25:22;;;;;;;10.90;6.97;;;7.80;99.90;;;;;;4984017;28;20048;-80
2022/04/29 06:27:47;;;;;;;13.87;7.03;;;7.80;99.90;;;;;;4987978;28;20034;-81
2022/04/29 06:30:14;;;;;;;13.67;7.27;;;7.80;99.90;;;;;;4983189;28;20084;-78
2022/04/29 06:32:39;;;;;;;16.50;7.77;;;7.80;99.90;;;;;;4997430;28;20034;-78
2022/04/29 06:35:06;;;;;;;15.47;7.57;;;8.00;99.90;;;;;;4982850;28;20056;-77
2022/04/29 06:37:33;;;;;;;10.63;6.90;;;7.90;99.90;;;;;;4992058;28;20042;-77
2022/04/29 06:39:59;;;;;;;13.80;7.47;;;8.00;99.90;;;;;;5001386;28;20046;-77
2022/04/29 06:42:25;;;;;;;11.43;7.60;;;8.00;99.90;;;;;;4979025;28;20053;-79
2022/04/29 06:44:50;;;;;;;16.27;7.17;;;8.10;99.90;;;;;;5001171;28;20438;-79
2022/04/29 06:47:17;;;;;;;9.83;7.77;;;8.10;99.90;;;;;;5003123;28;20493;-78
2022/04/29 06:49:43;;;;;;;13.33;6.77;;;8.10;99.90;;;;;;5002836;28;20386;-77
2022/04/29 06:52:09;;;;;;;10.53;6.20;;;8.10;99.90;;;;;;5014304;28;20115;-77
2022/04/29 06:54:35;;;;;;;11.03;6.33;;;8.20;99.90;;;;;;5004447;28;20107;-77
2022/04/29 06:57:01;;;;;;;8.77;6.20;;;8.20;99.90;;;;;;5004190;28;20073;-78
2022/04/29 06:59:27;;;;;;;13.87;6.50;;;8.20;99.90;;;;;;4995542;28;20073;-77
2022/04/29 07:01:53;;;;;;;12.70;6.63;;;8.30;99.90;;;;;;5010795;28;20046;-77
2022/04/29 07:04:19;;;;;;;13.70;6.07;;;8.30;99.90;;;;;;4989944;28;20033;-78
2022/04/29 07:06:44;;;;;;;7.03;5.33;;;8.30;99.90;;;;;;5003373;28;20176;-78
2022/04/29 07:09:10;;;;;;;8.57;5.07;;;8.30;99.90;;;;;;4971869;28;20137;-79
2022/04/29 07:11:36;;;;;;;7.87;5.20;;;8.30;99.90;;;;;;4981454;28;20030;-78
2022/04/29 07:14:02;;;;;;;10.63;5.27;;;8.40;99.90;;;;;;4996292;28;20030;-78
2022/04/29 07:16:30;;;;;;;8.70;5.07;;;8.40;99.90;;;;;;4995390;28;20049;-77
2022/04/29 07:18:57;;;;;;;9.00;5.17;;;8.40;99.90;;;;;;4997343;28;20053;-78
2022/04/29 07:21:23;;;;;;;9.90;5.40;;;8.40;99.90;;;;;;4991608;28;20417;-78
2022/04/29 07:23:49;;;;;;;8.23;5.07;;;8.60;99.90;;;;;;4978203;28;20053;-78
2022/04/29 07:26:15;;;;;;;7.70;5.50;;;8.60;99.90;;;;;;4996972;28;20041;-78
2022/04/29 07:28:41;;;;;;;13.53;5.10;;;8.60;99.90;;;;;;4974329;28;20042;-77
2022/04/29 07:31:07;;;;;;;10.17;5.27;;;8.70;99.90;;;;;;4990808;28;20045;-78
2022/04/29 07:33:32;;;;;;;8.67;5.37;;;8.70;99.90;;;;;;5001168;28;20029;-77
2022/04/29 07:41:45;;;;;;;12.27;5.57;;;8.80;99.90;;;;;;5013506;28;20120;-78
2022/04/29 07:44:15;;;;;;;11.03;4.67;;;8.80;99.90;;;;;;5010419;28;20092;-77
2022/04/29 07:46:49;;;;;;;7.40;4.67;;;8.90;99.90;;;;;;4986844;28;20379;-77
2022/04/29 07:49:15;;;;;;;8.10;4.50;;;9.00;99.90;;;;;;5009274;28;20040;-77
2022/04/29 07:51:42;;;;;;;7.33;4.50;;;9.00;99.90;;;;;;4973066;28;20454;-77
2022/04/29 07:54:08;;;;;;;8.47;4.40;;;9.10;99.90;;;;;;4978965;28;20046;-78
2022/04/29 07:56:34;;;;;;;6.43;4.50;;;9.00;99.90;;;;;;4967067;28;20042;-77
2022/04/29 07:59:00;;;;;;;6.30;4.27;;;9.00;99.90;;;;;;4990147;28;20068;-78
2022/04/29 08:01:26;;;;;;;6.77;4.77;;;9.00;99.90;;;;;;4986185;28;20050;-77
2022/04/29 08:03:53;;;;;;;9.70;4.63;;;8.90;99.90;;;;;;4983357;28;20038;-77
2022/04/29 08:06:19;;;;;;;7.30;4.43;;;9.00;99.90;;;;;;4964717;28;20291;-77
2022/04/29 08:08:48;;;;;;;8.43;4.80;;;9.10;99.90;;;;;;4957206;28;20035;-77
2022/04/29 08:11:16;;;;;;;7.80;4.37;;;9.10;99.90;;;;;;4971828;28;20050;-78
2022/04/29 08:13:44;;;;;;;9.03;4.87;;;9.30;99.90;;;;;;4998678;28;20352;-78
2022/04/29 08:16:11;;;;;;;14.47;5.20;;;9.30;99.90;;;;;;4941459;28;20045;-77
2022/04/29 08:18:37;;;;;;;7.23;4.80;;;9.30;99.90;;;;;;4955323;28;20046;-77
2022/04/29 08:21:03;;;;;;;9.73;5.07;;;9.40;99.90;;;;;;4969587;28;20150;-76
2022/04/29 08:23:29;;;;;;;9.30;5.30;;;9.40;99.90;;;;;;4951839;28;20138;-76
2022/04/29 08:25:56;;;;;;;7.67;4.67;;;9.50;99.90;;;;;;4966990;28;20054;-79
2022/04/29 08:28:23;;;;;;;8.07;4.73;;;9.50;99.90;;;;;;4951401;28;20125;-79
2022/04/29 08:30:49;;;;;;;6.60;4.50;;;9.50;99.90;;;;;;4967125;28;20047;-79
2022/04/29 08:33:15;;;;;;;8.77;4.33;;;9.60;99.90;;;;;;4967486;28;20062;-79
2022/04/29 08:35:42;;;;;;;6.17;3.93;;;9.70;99.90;;;;;;4934766;28;20081;-79
2022/04/29 08:38:10;;;;;;;7.47;4.30;;;9.70;99.90;;;;;;4953191;28;20046;-79
2022/04/29 08:40:44;;;;;;;7.70;3.93;;;9.70;99.90;;;;;;4970504;28;20038;-79
2022/04/29 08:43:14;;;;;;;6.40;3.80;;;9.80;99.90;;;;;;4969609;28;20038;-79
2022/04/29 08:45:40;;;;;;;7.50;4.03;;;9.90;99.90;;;;;;4970031;28;20046;-76
2022/04/29 08:48:07;;;;;;;11.80;4.40;;;10.20;99.90;;;;;;4973235;28;20093;-76
2022/04/29 08:50:33;;;;;;;7.93;4.50;;;10.50;99.90;;;;;;4968162;28;20371;-77
2022/04/29 08:53:01;;;;;;;9.00;4.80;;;10.80;99.90;;;;;;4962657;28;20071;-77
2022/04/29 09:01:01;;;;;;;9.70;4.80;;;10.60;99.90;;;;;;4965225;28;20395;-76
2022/04/29 09:03:27;;;;;;;6.00;4.50;;;10.50;99.90;;;;;;4949490;28;20047;-76
2022/04/29 09:05:53;;;;;;;8.77;4.53;;;10.50;99.90;;;;;;4968100;28;20061;-76
2022/04/29 09:08:21;;;;;;;6.53;4.70;;;10.40;99.90;;;;;;4949742;28;20121;-77
2022/04/29 09:10:58;;;;;;;7.60;4.40;;;10.30;99.90;;;;;;4948121;28;20038;-76
2022/04/29 09:13:29;;;;;;;7.20;4.30;;;10.40;99.90;;;;;;4947586;28;20042;-77
2022/04/29 09:16:04;;;;;;;6.97;4.60;;;10.40;99.90;;;;;;4950907;28;20047;-77
2022/04/29 09:18:45;;;;;;;6.50;3.97;;;10.30;99.90;;;;;;4967625;28;20744;-77
2022/04/29 09:21:15;;;;;;;6.70;4.40;;;10.30;99.90;;;;;;4960438;28;20458;-78
2022/04/29 09:23:56;;;;;;;7.10;4.30;;;10.50;99.90;;;;;;4968344;28;20541;-79
2022/04/29 09:26:26;;;;;;;6.43;4.03;;;10.40;99.90;;;;;;4965366;28;20654;-79
2022/04/29 09:29:12;;;;;;;7.40;4.30;;;10.40;99.90;;;;;;4965910;28;20053;-78
2022/04/29 09:32:01;;;;;;;9.67;4.37;;;10.50;99.90;;;;;;4968914;28;20039;-79
2022/04/29 09:34:46;;;;;;;4.87;3.77;;;10.40;99.90;;;;;;4971002;28;20031;-76
2022/04/29 09:37:24;;;;;;;9.23;4.50;;;10.50;99.90;;;;;;4971395;28;20038;-77
2022/04/29 09:39:55;;;;;;;6.93;4.40;;;10.50;99.90;;;;;;4970323;28;20078;-77
2022/04/29 09:42:21;;;;;;;6.50;4.10;;;10.50;99.90;;;;;;4969545;28;20126;-77
2022/04/29 09:44:47;;;;;;;7.17;4.37;;;10.60;99.90;;;;;;4971891;28;20130;-77
2022/04/29 09:47:20;;;;;;;8.43;4.53;;;10.60;99.90;;;;;;4955195;28;20030;-77
2022/04/29 09:50:01;;;;;;;6.13;4.00;;;10.60;99.90;;;;;;4953321;28;20082;-76
2022/04/29 09:52:30;;;;;;;7.97;4.30;;;10.60;99.90;;;;;;4973027;28;20107;-77
2022/04/29 09:55:18;;;;;;;8.50;4.13;;;10.60;99.90;;;;;;4994868;28;20042;-77
2022/04/29 09:57:56;;;;;;;5.93;4.43;;;10.90;99.90;;;;;;4980660;28;20038;-77
2022/04/29 10:00:23;;;;;;;6.07;4.47;;;11.10;99.90;;;;;;4995777;28;20057;-78
2022/04/29 10:02:49;;;;;;;6.67;4.40;;;11.20;99.90;;;;;;5000495;28;20057;-78
2022/04/29 10:05:15;;;;;;;9.33;4.50;;;11.20;99.90;;;;;;4980004;28;20037;-78
2022/04/29 10:07:42;;;;;;;5.87;3.90;;;11.40;99.90;;;;;;4996099;28;20033;-77
2022/04/29 10:10:09;;;;;;;5.63;4.43;;;11.40;99.90;;;;;;4996263;28;20038;-78
2022/04/29 10:12:35;;;;;;;8.93;4.50;;;11.40;99.90;;;;;;4998039;28;20482;-78
2022/04/29 10:15:06;;;;;;;5.53;4.43;;;11.20;99.90;;;;;;4981972;28;20139;-78
2022/04/29 10:23:10;;;;;;;5.57;4.40;;;11.00;99.90;;;;;;4992800;28;20046;-78
2022/04/29 10:25:41;;;;;;;5.40;4.07;;;11.00;99.90;;;;;;4995260;28;20034;-77
2022/04/29 10:28:08;;;;;;;6.30;4.10;;;11.00;99.90;;;;;;4993656;28;20117;-78
2022/04/29 10:30:38;;;;;;;6.87;4.93;;;10.90;99.90;;;;;;4998770;28;20113;-78
2022/04/29 10:33:09;;;;;;;5.80;4.83;;;10.90;99.90;;;;;;4995783;28;20046;-78
2022/04/29 10:35:43;;;;;;;12.00;5.73;;;10.80;99.90;;;;;;4981094;28;20037;-78
2022/04/29 10:38:25;;;;;;;7.47;4.33;;;10.70;99.90;;;;;;4995671;28;20152;-77
2022/04/29 10:41:12;;;;;;;7.37;4.30;;;10.70;99.90;;;;;;4978490;28;20664;-78
2022/04/29 10:43:43;;;;;;;5.57;4.33;;;10.70;99.90;;;;;;4993312;28;20378;-77
2022/04/29 10:46:09;;;;;;;5.75;4.75;;;10.60;99.90;;;;;;4997009;28;20389;-78
2022/04/29 10:48:37;;;;;;;5.73;4.53;;;10.60;99.90;;;;;;4996088;28;20056;-77
2022/04/29 10:51:29;;;;;;;6.13;4.27;;;10.60;99.90;;;;;;4994203;28;20037;-78
2022/04/29 10:53:56;;;;;;;8.50;5.00;;;10.70;99.90;;;;;;4994711;28;20042;-78
2022/04/29 10:56:29;;;;;;;10.50;4.43;;;10.80;99.90;;;;;;4975278;28;20048;-78
2022/04/29 10:59:18;;;;;;;8.93;4.70;;;10.80;99.90;;;;;;4981400;28;20060;-78
2022/04/29 11:02:07;;;;;;;6.73;4.30;;;10.80;99.90;;;;;;5011094;28;20532;-78
2022/04/29 11:04:34;;;;;;;7.93;4.40;;;10.80;99.90;;;;;;5002267;28;20481;-78
2022/04/29 11:07:00;;;;;;;5.87;4.57;;;10.70;99.90;;;;;;4977159;28;20146;-78
2022/04/29 11:09:30;;;;;;;8.37;4.70;;;10.70;99.90;;;;;;4965467;28;20041;-78
2022/04/29 11:11:57;;;;;;;7.07;4.30;;;10.70;99.90;;;;;;4979501;28;20041;-78
2022/04/29 11:14:23;;;;;;;8.07;4.63;;;10.70;99.90;;;;;;4995443;28;20069;-78
2022/04/29 11:16:53;;;;;;;6.10;4.47;;;10.80;99.90;;;;;;4978155;28;20077;-78
2022/04/29 11:19:21;;;;;;;8.47;5.00;;;10.90;99.90;;;;;;5009605;28;20042;-78
2022/04/29 11:24:43;;;;;;;7.47;5.37;;;10.90;99.90;;;;;;4995173;28;20077;-79
2022/04/29 11:27:09;;;;;;;8.10;6.20;;;10.70;99.90;;;;;;4982099;28;20064;-78
2022/04/29 11:29:42;;;;;;;10.60;5.73;;;10.60;99.90;;;;;;4965165;28;20168;-78
2022/04/29 11:32:09;;;;;;;11.17;6.37;;;10.60;99.90;;;;;;4982130;28;20057;-77
2022/04/29 11:34:35;;;;;;;6.07;5.47;;;10.50;99.90;;;;;;4970059;28;20041;-78
2022/04/29 11:37:01;;;;;;;9.17;5.67;;;10.50;99.90;;;;;;4995015;28;20085;-78
2022/04/29 11:39:26;;;;;;;7.13;5.47;;;10.50;99.90;;;;;;4978351;28;20125;-79
2022/04/29 11:42:01;;;;;;;7.33;5.30;;;10.50;99.90;;;;;;4968574;28;20049;-78
2022/04/29 11:44:38;;;;;;;8.93;5.67;;;10.50;99.90;;;;;;4977732;28;20037;-78
2022/04/29 11:47:05;;;;;;;11.00;5.30;;;10.50;99.90;;;;;;4977765;28;20052;-78
2022/04/29 11:49:34;;;;;;;6.67;5.60;;;10.50;99.90;;;;;;4982274;28;20417;-78
2022/04/29 11:52:23;;;;;;;6.53;5.87;;;10.60;99.90;;;;;;4963614;28;20055;-78
2022/04/29 11:54:56;;;;;;;7.13;5.33;;;10.60;99.90;;;;;;5011468;28;20120;-78
2022/04/29 11:57:24;;;;;;;7.67;5.60;;;10.70;99.90;;;;;;4993023;28;20049;-78
2022/04/29 11:59:50;;;;;;;9.40;6.47;;;10.80;99.90;;;;;;4977972;28;20034;-79
2022/04/29 12:02:21;;;;;;;11.43;6.20;;;10.90;99.90;;;;;;4964670;28;20121;-77
2022/04/29 12:05:01;;;;;;;8.83;5.80;;;10.90;99.90;;;;;;4994528;28;20033;-78
2022/04/29 12:07:29;;;;;;;9.03;6.20;;;11.00;99.90;;;;;;4981951;28;20065;-77
2022/04/29 12:09:55;;;;;;;9.63;5.90;;;10.90;99.90;;;;;;4977698;28;20129;-78
2022/04/29 12:12:29;;;;;;;9.43;5.70;;;10.90;99.90;;;;;;4993753;28;20041;-78
2022/04/29 12:14:58;;;;;;;7.97;6.13;;;10.90;99.90;;;;;;4995241;28;20038;-78
2022/04/29 12:17:50;;;;;;;15.60;6.67;;;10.80;99.90;;;;;;4991015;28;20034;-77
2022/04/29 12:20:18;;;;;;;8.13;5.68;;;10.80;99.90;;;;;;4987140;28;20433;-77
2022/04/29 12:22:47;;;;;;;9.97;6.37;;;10.90;99.90;;;;;;4992691;28;20133;-78
2022/04/29 12:25:33;;;;;;;11.70;6.03;;;10.90;99.90;;;;;;4993029;28;20034;-78
2022/04/29 12:28:18;;;;;;;8.23;6.37;;;10.90;99.90;;;;;;4993486;28;20552;-78
2022/04/29 12:37:06;;;;;;;8.80;6.20;;;10.80;99.90;;;;;;4994662;28;20072;-78
2022/04/29 12:39:40;;;;;;;9.40;6.07;;;10.80;99.90;;;;;;4994250;28;20067;-78
2022/04/29 12:42:11;;;;;;;8.93;5.83;;;10.90;99.90;;;;;;5008957;28;20457;-78
2022/04/29 12:45:05;;;;;;;7.60;5.65;;;11.00;99.90;;;;;;4977035;28;20073;-78
2022/04/29 12:47:42;;;;;;;9.73;5.73;;;11.20;99.90;;;;;;4988112;28;20057;-78
2022/04/29 12:50:28;;;;;;;7.23;5.53;;;11.30;99.90;;;;;;4992548;28;20092;-78
2022/04/29 12:53:07;;;;;;;7.23;5.70;;;11.30;99.90;;;;;;4991824;28;20057;-78
2022/04/29 12:55:37;;;;;;;9.23;6.00;;;11.30;99.90;;;;;;4991400;28;20123;-80
2022/04/29 12:58:05;;;;;;;7.27;5.37;;;11.40;99.90;;;;;;4977454;28;20045;-78
2022/04/29 13:00:31;;;;;;;10.17;6.70;;;11.30;99.90;;;;;;4989538;28;20077;-78
2022/04/29 13:03:26;;;;;;;9.70;5.50;;;11.30;99.90;;;;;;4992179;28;20046;-78
2022/04/29 13:05:52;;;;;;;8.47;6.17;;;11.30;99.90;;;;;;4985452;28;20112;-78
2022/04/29 13:08:19;;;;;;;10.30;6.17;;;11.20;99.90;;;;;;4979236;28;20125;-78
2022/04/29 13:10:51;;;;;;;10.60;6.33;;;11.10;99.90;;;;;;5015095;28;20116;-79
2022/04/29 13:13:19;;;;;;;8.00;5.67;;;11.10;99.90;;;;;;4981574;28;20038;-78
2022/04/29 13:15:46;;;;;;;11.47;5.90;;;11.00;99.90;;;;;;4998169;28;20045;-78
2022/04/29 13:18:12;;;;;;;9.53;5.60;;;11.00;99.90;;;;;;4982723;28;20100;-78
2022/04/29 13:20:38;;;;;;;8.13;5.60;;;11.00;99.90;;;;;;4980892;28;20091;-79
2022/04/29 13:23:05;;;;;;;7.43;5.77;;;11.00;99.90;;;;;;4998786;28;20045;-79
2022/04/29 13:25:35;;;;;;;10.67;5.57;;;11.00;99.90;;;;;;4981895;28;20045;-78